Achtung, Daten sind nicht aktuell!
Die Daten der Wetterstation sind älter als 49 Minuten!

 

Letzte 24h
Datum & Zeit Temp. Luft-
feuchte
Wind Nieder-
schlag
Luftdruck Tendenz
IN OUT IN OUT Richtung Min. Max.
2018.10.22 02:56 13.5 °C 8.3 °C 58% 83% W 266 ° 1 km/h 6 km/h 0.0 mm 1033.00 hPa langsam fallend
03:56 13.4 °C 7.6 °C 58% 84% W 268 ° 2 km/h 7 km/h 0.0 mm 1032.60 hPa langsam fallend
04:56 13.2 °C 6.6 °C 58% 90% WSW 254 ° 2 km/h 5 km/h 0.0 mm 1032.60 hPa langsam fallend
05:56 12.9 °C 6.3 °C 58% 89% W 270 ° 5 km/h 11 km/h 0.0 mm 1032.70 hPa langsam fallend
06:56 12.6 °C 5.6 °C 58% 91% W 264 ° 1 km/h 4 km/h 0.0 mm 1032.70 hPa langsam steigend
07:56 12.3 °C 5.9 °C 58% 90% WSW 250 ° 3 km/h 6 km/h 0.0 mm 1032.80 hPa langsam steigend
08:56 12.1 °C 6.2 °C 58% 87% W 278 ° 1 km/h 5 km/h 0.0 mm 1033.30 hPa langsam steigend
09:56 12.4 °C 10.6 °C 59% 84% SSO 158 ° 0 km/h 4 km/h 0.0 mm 1033.30 hPa langsam steigend
10:56 12.9 °C 11.7 °C 61% 66% WNW 285 ° 1 km/h 6 km/h 0.0 mm 1033.50 hPa langsam steigend
11:56 13.9 °C 12.1 °C 61% 64% WNW 292 ° 3 km/h 7 km/h 0.0 mm 1033.30 hPa gleichbleibend
12:56 14.9 °C 13.6 °C 58% 56% WNW 293 ° 3 km/h 10 km/h 0.0 mm 1032.90 hPa langsam fallend
13:56 15.7 °C 14.1 °C 53% 54% W 281 ° 4 km/h 11 km/h 0.0 mm 1032.20 hPa langsam fallend
14:56 16.4 °C 14.6 °C 51% 51% W 275 ° 4 km/h 10 km/h 0.0 mm 1031.60 hPa fallend
15:56 16.7 °C 14.5 °C 51% 52% WNW 284 ° 3 km/h 11 km/h 0.0 mm 1031.40 hPa langsam fallend
16:56 17.2 °C 13.6 °C 50% 56% WSW 237 ° 2 km/h 5 km/h 0.0 mm 1031.50 hPa langsam fallend
17:56 16.5 °C 12.5 °C 50% 61% SW 220 ° 2 km/h 9 km/h 0.0 mm 1031.50 hPa gleichbleibend
18:56 15.2 °C 12.4 °C 52% 61% SW 227 ° 7 km/h 17 km/h 0.0 mm 1031.70 hPa langsam steigend
19:56 15.0 °C 11.6 °C 54% 63% W 278 ° 7 km/h 17 km/h 0.0 mm 1032.30 hPa langsam steigend
20:56 14.7 °C 11.8 °C 56% 63% W 259 ° 12 km/h 24 km/h 0.0 mm 1032.10 hPa langsam steigend
21:56 14.5 °C 11.6 °C 56% 62% SW 225 ° 11 km/h 22 km/h 0.0 mm 1032.70 hPa langsam steigend
22:56 14.4 °C 11.6 °C 57% 65% SW 220 ° 12 km/h 22 km/h 0.0 mm 1032.80 hPa langsam steigend
23:56 14.4 °C 11.3 °C 58% 69% SW 227 ° 12 km/h 24 km/h 0.0 mm 1032.80 hPa langsam steigend
2018.10.23 00:56 14.4 °C 10.3 °C 58% 79% W 275 ° 13 km/h 26 km/h 0.0 mm 1033.10 hPa langsam steigend
01:56 14.3 °C 10.2 °C 59% 81% W 276 ° 9 km/h 19 km/h 0.0 mm 1033.10 hPa langsam steigend

 

Verlauf: letzte 24h
WIND   Windrose
(Klicke ins Bild, um den Hintergrund abzuschalten)
WIND   Windverkauf 2.5h
TEMP   Temperatur 2.5h
Druck   Luftdruck 2.5h
Regen   Luftdruck 2.5h